Time;durP1;ratioP1;P1;durP2;ratioP2;P2;SDS_P1;SDS_P2;PMS_P1;PMS_P2;Temp;Humidity;BMP_temperature;BMP_pressure;BME280_temperature;BME280_humidity;BME280_pressure;Samples;Min_cycle;Max_cycle;Signal;HPM_P1;HPM_P2
2023/12/20 00:01:01;;;;;;;102.17;96.07;;;;;;;;;;5016914;28;20900;-79
2023/12/20 00:03:28;;;;;;;97.17;91.37;;;;;;;;;;5018669;28;20513;-80
2023/12/20 00:05:55;;;;;;;97.57;91.43;;;;;;;;;;5017423;28;20483;-79
2023/12/20 00:08:22;;;;;;;102.13;95.73;;;;;;;;;;5017864;28;20443;-79
2023/12/20 00:10:49;;;;;;;101.30;95.18;;;;;;;;;;5017196;28;20499;-79
2023/12/20 00:13:16;;;;;;;98.27;92.33;;;;;;;;;;5017672;28;20210;-79
2023/12/20 00:15:44;;;;;;;101.90;95.60;;;;;;;;;;5017873;28;20861;-79
2023/12/20 00:18:11;;;;;;;100.70;94.47;;;;;;;;;;5018789;28;20464;-79
2023/12/20 00:20:38;;;;;;;98.93;92.77;;;;;;;;;;5017509;28;20504;-80
2023/12/20 00:23:05;;;;;;;103.70;97.37;;;;;;;;;;5017528;28;20452;-79
2023/12/20 00:25:32;;;;;;;101.30;94.50;;;;;;;;;;5017590;28;20511;-78
2023/12/20 00:28:00;;;;;;;94.97;88.50;;;;;;;;;;5017072;28;20465;-79
2023/12/20 00:30:28;;;;;;;99.90;93.73;;;;;;;;;;5015854;28;20469;-80
2023/12/20 00:32:56;;;;;;;96.77;90.73;;;;;;;;;;5017434;28;20519;-79
2023/12/20 00:35:23;;;;;;;98.77;92.77;;;;;;;;;;5016669;28;20548;-79
2023/12/20 00:37:50;;;;;;;98.37;91.83;;;;;;;;;;4999554;28;21248;-79
2023/12/20 00:40:17;;;;;;;92.13;86.63;;;;;;;;;;4996568;28;20449;-79
2023/12/20 00:42:46;;;;;;;92.37;87.13;;;;;;;;;;4996649;28;20497;-79
2023/12/20 00:45:14;;;;;;;96.70;90.80;;;;;;;;;;4996997;28;20493;-79
2023/12/20 00:47:41;;;;;;;94.43;87.77;;;;;;;;;;4997066;28;20568;-79
2023/12/20 00:50:10;;;;;;;95.53;90.10;;;;;;;;;;4997030;28;20521;-80
2023/12/20 00:52:37;;;;;;;96.10;90.47;;;;;;;;;;4996617;28;20446;-79
2023/12/20 00:55:04;;;;;;;90.93;85.50;;;;;;;;;;4995971;28;20945;-79
2023/12/20 00:57:32;;;;;;;90.90;85.10;;;;;;;;;;4996113;28;21024;-79
2023/12/20 00:59:59;;;;;;;93.13;86.67;;;;;;;;;;4996395;28;20882;-79
2023/12/20 01:02:26;;;;;;;87.25;82.03;;;;;;;;;;4996186;28;21024;-79
2023/12/20 01:04:53;;;;;;;92.07;86.17;;;;;;;;;;4996210;28;20252;-80
2023/12/20 01:07:21;;;;;;;91.40;85.60;;;;;;;;;;4996210;28;20453;-80
2023/12/20 01:09:48;;;;;;;94.18;88.70;;;;;;;;;;4996505;28;20507;-80
2023/12/20 01:12:15;;;;;;;88.80;83.50;;;;;;;;;;4995824;28;20202;-80
2023/12/20 01:14:42;;;;;;;92.20;86.67;;;;;;;;;;4995981;28;20471;-80
2023/12/20 01:17:09;;;;;;;91.43;86.03;;;;;;;;;;4996168;28;20548;-80
2023/12/20 01:19:36;;;;;;;87.40;82.78;;;;;;;;;;4995638;28;20457;-80
2023/12/20 01:22:03;;;;;;;92.70;87.23;;;;;;;;;;4995042;28;20225;-80
2023/12/20 01:24:31;;;;;;;92.88;86.57;;;;;;;;;;4996552;28;20536;-80
2023/12/20 01:26:58;;;;;;;96.23;90.37;;;;;;;;;;4996540;28;20276;-80
2023/12/20 01:29:25;;;;;;;91.00;84.60;;;;;;;;;;4997151;28;20453;-80
2023/12/20 01:31:52;;;;;;;87.97;82.43;;;;;;;;;;4995849;28;20495;-80
2023/12/20 01:34:19;;;;;;;91.63;86.10;;;;;;;;;;4997519;28;20515;-79
2023/12/20 01:36:46;;;;;;;90.83;85.53;;;;;;;;;;4999262;28;20891;-80
2023/12/20 01:39:13;;;;;;;90.07;84.90;;;;;;;;;;5001380;28;20457;-80
2023/12/20 01:41:42;;;;;;;88.40;83.30;;;;;;;;;;5000795;28;20493;-79
2023/12/20 01:44:09;;;;;;;85.57;80.43;;;;;;;;;;5001177;28;20460;-80
2023/12/20 01:46:36;;;;;;;92.10;86.43;;;;;;;;;;5000598;28;20504;-80
2023/12/20 01:49:03;;;;;;;82.47;77.83;;;;;;;;;;5001292;28;20476;-79
2023/12/20 01:51:30;;;;;;;80.15;75.75;;;;;;;;;;4999524;28;20441;-79
2023/12/20 01:53:58;;;;;;;75.80;71.67;;;;;;;;;;5000247;28;20245;-80
2023/12/20 01:56:25;;;;;;;77.05;72.75;;;;;;;;;;5000678;28;20529;-80
2023/12/20 01:58:53;;;;;;;82.63;78.13;;;;;;;;;;5000998;28;20210;-80
2023/12/20 02:01:20;;;;;;;81.43;76.70;;;;;;;;;;5000283;28;20477;-80
2023/12/20 02:03:48;;;;;;;78.27;74.03;;;;;;;;;;5001119;28;20448;-81
2023/12/20 02:06:15;;;;;;;77.60;73.23;;;;;;;;;;4999944;28;20461;-80
2023/12/20 02:08:41;;;;;;;83.67;79.07;;;;;;;;;;4999744;28;20448;-80
2023/12/20 02:11:08;;;;;;;84.23;79.40;;;;;;;;;;4999121;28;20441;-80
2023/12/20 02:13:35;;;;;;;82.27;77.50;;;;;;;;;;4999682;28;20504;-80
2023/12/20 02:16:04;;;;;;;82.00;77.20;;;;;;;;;;5000262;28;20890;-80
2023/12/20 02:18:31;;;;;;;79.13;74.93;;;;;;;;;;4999043;28;20805;-80
2023/12/20 02:20:58;;;;;;;84.37;79.27;;;;;;;;;;4998393;28;20471;-80
2023/12/20 02:23:26;;;;;;;81.20;76.57;;;;;;;;;;4999190;28;20810;-79
2023/12/20 02:25:53;;;;;;;83.33;78.93;;;;;;;;;;4999249;28;20860;-79
2023/12/20 02:28:21;;;;;;;81.77;77.47;;;;;;;;;;4998500;28;20441;-80
2023/12/20 02:30:49;;;;;;;79.70;75.45;;;;;;;;;;5015791;28;20475;-80
2023/12/20 02:33:17;;;;;;;77.80;73.70;;;;;;;;;;5018594;28;20653;-79
2023/12/20 02:35:43;;;;;;;86.47;80.97;;;;;;;;;;5019242;28;20448;-80
2023/12/20 02:38:10;;;;;;;83.30;78.80;;;;;;;;;;5018116;28;20506;-80
2023/12/20 02:40:39;;;;;;;84.78;79.88;;;;;;;;;;5018388;28;20795;-80
2023/12/20 02:43:06;;;;;;;80.83;76.00;;;;;;;;;;5018309;28;20701;-80
2023/12/20 02:45:33;;;;;;;86.03;80.43;;;;;;;;;;5018350;28;20461;-80
2023/12/20 02:48:00;;;;;;;79.67;75.63;;;;;;;;;;5007248;28;20466;-79
2023/12/20 02:50:27;;;;;;;82.90;78.27;;;;;;;;;;4998740;28;20457;-79
2023/12/20 02:52:54;;;;;;;84.70;79.50;;;;;;;;;;5000396;28;20449;-80
2023/12/20 02:55:21;;;;;;;85.63;80.57;;;;;;;;;;4999544;28;20468;-80
2023/12/20 02:57:49;;;;;;;85.70;80.53;;;;;;;;;;5000336;28;20527;-79
2023/12/20 03:00:16;;;;;;;84.20;79.13;;;;;;;;;;4999272;28;20237;-80
2023/12/20 03:02:43;;;;;;;83.13;78.10;;;;;;;;;;4999618;28;20500;-80
2023/12/20 03:05:10;;;;;;;82.40;77.63;;;;;;;;;;5000230;28;20445;-79
2023/12/20 03:07:38;;;;;;;75.47;71.70;;;;;;;;;;4999774;28;20222;-80
2023/12/20 03:10:06;;;;;;;78.25;73.85;;;;;;;;;;4999786;28;20210;-80
2023/12/20 03:12:33;;;;;;;76.27;71.87;;;;;;;;;;4998354;28;20257;-80
2023/12/20 03:15:01;;;;;;;71.97;68.25;;;;;;;;;;4999934;28;21001;-79
2023/12/20 03:17:28;;;;;;;74.03;68.80;;;;;;;;;;4998847;28;20245;-81
2023/12/20 03:19:55;;;;;;;77.50;73.33;;;;;;;;;;4998510;28;20546;-80
2023/12/20 03:22:22;;;;;;;79.70;75.30;;;;;;;;;;4998944;28;20477;-79
2023/12/20 03:24:49;;;;;;;75.43;70.90;;;;;;;;;;4999991;28;20476;-80
2023/12/20 03:27:16;;;;;;;80.38;75.90;;;;;;;;;;4998361;28;20473;-80
2023/12/20 03:29:43;;;;;;;81.07;76.10;;;;;;;;;;4999512;28;20241;-79
2023/12/20 03:32:11;;;;;;;75.33;71.33;;;;;;;;;;4998032;28;21246;-79
2023/12/20 03:34:38;;;;;;;76.23;71.90;;;;;;;;;;4998245;28;20442;-79
2023/12/20 03:37:05;;;;;;;75.10;70.50;;;;;;;;;;4999768;28;20522;-80
2023/12/20 03:39:32;;;;;;;73.60;69.40;;;;;;;;;;4998015;28;20457;-79
2023/12/20 03:41:59;;;;;;;70.07;65.90;;;;;;;;;;4997586;28;20477;-79
2023/12/20 03:44:26;;;;;;;70.67;66.47;;;;;;;;;;4999663;28;20457;-80
2023/12/20 03:46:53;;;;;;;66.37;62.53;;;;;;;;;;4998123;28;20465;-79
2023/12/20 03:49:21;;;;;;;67.60;63.70;;;;;;;;;;4999086;28;21009;-79
2023/12/20 03:51:48;;;;;;;66.37;62.47;;;;;;;;;;4997826;28;20508;-80
2023/12/20 03:54:15;;;;;;;66.70;60.95;;;;;;;;;;4998361;28;20529;-79
2023/12/20 03:56:42;;;;;;;60.53;56.60;;;;;;;;;;4997536;28;20230;-79
2023/12/20 03:59:09;;;;;;;60.50;56.87;;;;;;;;;;4998243;28;20839;-80
2023/12/20 04:01:36;;;;;;;62.17;58.22;;;;;;;;;;4998059;28;20477;-80
2023/12/20 04:04:04;;;;;;;62.65;59.15;;;;;;;;;;4999567;28;20229;-80
2023/12/20 04:06:32;;;;;;;61.30;58.05;;;;;;;;;;4998119;28;20293;-79
2023/12/20 04:08:59;;;;;;;56.90;53.80;;;;;;;;;;4997846;28;20198;-79
2023/12/20 04:11:26;;;;;;;66.20;61.80;;;;;;;;;;4998039;28;20575;-79
2023/12/20 04:13:53;;;;;;;82.20;75.00;;;;;;;;;;4998012;28;20206;-79
2023/12/20 04:16:20;;;;;;;103.57;92.47;;;;;;;;;;4997872;28;20469;-79
2023/12/20 04:18:47;;;;;;;63.93;58.97;;;;;;;;;;4998596;28;20210;-79
2023/12/20 04:21:14;;;;;;;74.85;68.88;;;;;;;;;;4996681;28;20992;-80
2023/12/20 04:23:43;;;;;;;69.10;62.80;;;;;;;;;;4996989;28;21095;-79
2023/12/20 04:26:11;;;;;;;80.40;73.97;;;;;;;;;;4998607;28;20474;-81
2023/12/20 04:28:37;;;;;;;68.97;63.80;;;;;;;;;;4998765;28;20442;-80
2023/12/20 04:31:05;;;;;;;60.58;56.97;;;;;;;;;;4998406;28;20506;-79
2023/12/20 04:33:31;;;;;;;56.88;53.17;;;;;;;;;;4998236;28;20202;-79
2023/12/20 04:35:59;;;;;;;52.05;48.97;;;;;;;;;;4998884;28;20269;-79
2023/12/20 04:38:26;;;;;;;52.27;48.63;;;;;;;;;;4997461;28;20218;-79
2023/12/20 04:40:55;;;;;;;52.50;49.15;;;;;;;;;;4996734;28;20457;-79
2023/12/20 04:43:22;;;;;;;45.57;43.07;;;;;;;;;;4996925;28;20257;-79
2023/12/20 04:45:49;;;;;;;38.40;36.35;;;;;;;;;;4998230;28;20446;-79
2023/12/20 04:48:16;;;;;;;34.53;32.58;;;;;;;;;;4998224;28;20262;-79
2023/12/20 04:50:43;;;;;;;34.33;32.23;;;;;;;;;;4995828;28;20260;-79
2023/12/20 04:53:10;;;;;;;32.97;30.90;;;;;;;;;;4997244;28;20453;-79
2023/12/20 04:55:37;;;;;;;31.23;29.27;;;;;;;;;;4997068;28;20456;-79
2023/12/20 04:58:05;;;;;;;29.85;28.05;;;;;;;;;;4996685;28;20236;-79
2023/12/20 05:00:32;;;;;;;35.63;32.23;;;;;;;;;;4995842;28;20771;-78
2023/12/20 05:02:59;;;;;;;30.95;28.73;;;;;;;;;;4996888;28;20489;-79
2023/12/20 05:05:26;;;;;;;33.25;30.58;;;;;;;;;;4996446;28;20290;-79
2023/12/20 05:07:53;;;;;;;28.20;26.42;;;;;;;;;;4996664;28;20230;-79
2023/12/20 05:10:20;;;;;;;30.70;28.45;;;;;;;;;;4996110;28;20218;-79
2023/12/20 05:12:47;;;;;;;26.38;24.60;;;;;;;;;;5014553;28;20209;-79
2023/12/20 05:15:15;;;;;;;27.37;25.97;;;;;;;;;;5016021;28;20332;-79
2023/12/20 05:17:42;;;;;;;28.43;26.50;;;;;;;;;;5015720;28;20476;-79
2023/12/20 05:20:10;;;;;;;28.13;26.53;;;;;;;;;;5015957;28;20452;-78
2023/12/20 05:22:37;;;;;;;26.73;25.13;;;;;;;;;;5015677;28;20480;-79
2023/12/20 05:25:04;;;;;;;27.70;26.00;;;;;;;;;;5016455;28;20206;-79
2023/12/20 05:27:31;;;;;;;24.75;23.25;;;;;;;;;;5016147;28;20233;-78
2023/12/20 05:29:58;;;;;;;30.30;27.60;;;;;;;;;;5015749;28;20260;-79
2023/12/20 05:32:27;;;;;;;30.43;28.10;;;;;;;;;;5015334;28;20860;-79
2023/12/20 05:34:53;;;;;;;29.37;27.20;;;;;;;;;;5016278;28;20448;-79
2023/12/20 05:37:20;;;;;;;29.17;26.87;;;;;;;;;;5015777;28;20554;-79
2023/12/20 05:39:47;;;;;;;31.43;28.30;;;;;;;;;;5015505;28;20448;-79
2023/12/20 05:42:14;;;;;;;27.77;26.07;;;;;;;;;;5014666;28;20469;-78
2023/12/20 05:44:41;;;;;;;25.20;23.95;;;;;;;;;;5015522;28;20496;-79
2023/12/20 05:47:08;;;;;;;26.48;25.08;;;;;;;;;;5015667;28;20226;-78
2023/12/20 05:49:36;;;;;;;24.90;23.13;;;;;;;;;;5015856;28;20348;-79
2023/12/20 05:52:04;;;;;;;28.10;26.13;;;;;;;;;;5014461;28;20448;-78
2023/12/20 05:54:31;;;;;;;24.47;23.00;;;;;;;;;;5015346;28;20514;-79
2023/12/20 05:56:58;;;;;;;27.08;25.08;;;;;;;;;;5015558;28;20950;-79
2023/12/20 05:59:25;;;;;;;25.70;23.40;;;;;;;;;;5015481;28;20216;-79
2023/12/20 06:01:52;;;;;;;27.47;25.47;;;;;;;;;;5015801;28;20630;-79
2023/12/20 06:04:19;;;;;;;29.25;26.65;;;;;;;;;;5015455;28;20480;-79
2023/12/20 06:06:47;;;;;;;29.97;28.17;;;;;;;;;;5015619;28;20225;-79
2023/12/20 06:09:15;;;;;;;31.40;29.13;;;;;;;;;;5015784;28;20495;-78
2023/12/20 06:11:42;;;;;;;27.20;25.40;;;;;;;;;;5015243;28;20446;-79
2023/12/20 06:14:09;;;;;;;43.60;32.17;;;;;;;;;;5015111;28;20441;-78
2023/12/20 06:16:36;;;;;;;27.93;25.67;;;;;;;;;;5015161;28;20468;-79
2023/12/20 06:19:02;;;;;;;26.85;24.95;;;;;;;;;;5015081;28;21165;-79
2023/12/20 06:21:30;;;;;;;27.88;25.42;;;;;;;;;;5015150;28;20202;-78
2023/12/20 06:24:00;;;;;;;30.33;28.03;;;;;;;;;;5019306;28;20228;-79
2023/12/20 06:26:27;;;;;;;39.13;23.60;;;;;;;;;;5018858;28;20460;-78
2023/12/20 06:28:55;;;;;;;26.70;24.73;;;;;;;;;;5018632;28;20836;-78
2023/12/20 06:31:22;;;;;;;29.53;26.30;;;;;;;;;;5007942;28;20473;-78
2023/12/20 06:33:57;;;;;;;26.30;24.23;;;;;;;;;;4999484;28;21005;-79
2023/12/20 06:36:24;;;;;;;27.33;25.23;;;;;;;;;;4999649;28;20229;-79
2023/12/20 06:38:51;;;;;;;26.20;24.10;;;;;;;;;;4999332;28;20508;-78
2023/12/20 06:41:19;;;;;;;23.10;21.77;;;;;;;;;;4998131;28;20438;-78
2023/12/20 06:43:47;;;;;;;23.83;21.92;;;;;;;;;;5018243;28;20232;-78
2023/12/20 06:46:14;;;;;;;26.00;23.47;;;;;;;;;;5018268;28;20239;-78
2023/12/20 06:48:41;;;;;;;23.02;21.65;;;;;;;;;;5018279;28;20455;-78
2023/12/20 06:51:08;;;;;;;25.60;23.50;;;;;;;;;;5018899;28;20263;-78
2023/12/20 06:53:35;;;;;;;24.40;23.00;;;;;;;;;;5018283;28;20453;-78
2023/12/20 06:56:02;;;;;;;24.33;22.83;;;;;;;;;;5018222;28;20237;-78
2023/12/20 06:58:30;;;;;;;26.37;24.17;;;;;;;;;;5019146;28;20214;-78
2023/12/20 07:00:57;;;;;;;22.63;20.97;;;;;;;;;;5017381;28;20929;-78
2023/12/20 07:03:24;;;;;;;24.20;22.00;;;;;;;;;;5017921;28;20484;-79
2023/12/20 07:05:51;;;;;;;23.80;22.13;;;;;;;;;;5017937;28;20444;-78
2023/12/20 07:08:19;;;;;;;22.57;20.77;;;;;;;;;;5018978;28;20464;-79
2023/12/20 07:10:46;;;;;;;24.27;21.77;;;;;;;;;;5017891;28;20535;-79
2023/12/20 07:13:13;;;;;;;22.17;19.57;;;;;;;;;;5018555;28;20507;-78
2023/12/20 07:15:42;;;;;;;23.03;20.90;;;;;;;;;;5018643;28;20456;-79
2023/12/20 07:18:09;;;;;;;24.88;19.50;;;;;;;;;;5017312;28;20625;-79
2023/12/20 07:20:36;;;;;;;22.92;20.92;;;;;;;;;;5017471;28;20193;-78
2023/12/20 07:23:03;;;;;;;24.88;22.80;;;;;;;;;;5017607;28;20233;-79
2023/12/20 07:25:32;;;;;;;23.83;20.97;;;;;;;;;;5018366;28;20202;-78
2023/12/20 07:27:59;;;;;;;22.27;20.67;;;;;;;;;;5009011;28;20539;-78
2023/12/20 07:30:26;;;;;;;21.47;20.07;;;;;;;;;;4997682;28;20520;-79
2023/12/20 07:32:54;;;;;;;21.50;20.10;;;;;;;;;;4997884;28;20442;-78
2023/12/20 07:35:21;;;;;;;22.38;20.58;;;;;;;;;;5017696;28;20488;-79
2023/12/20 07:37:48;;;;;;;22.55;20.27;;;;;;;;;;5017225;28;20260;-79
2023/12/20 07:40:16;;;;;;;22.05;20.25;;;;;;;;;;5018072;28;20662;-79
2023/12/20 07:42:43;;;;;;;25.70;21.75;;;;;;;;;;5015990;28;20205;-78
2023/12/20 07:45:11;;;;;;;22.98;19.50;;;;;;;;;;5015775;28;20205;-78
2023/12/20 07:47:38;;;;;;;20.77;19.13;;;;;;;;;;5015567;28;20245;-78
2023/12/20 07:50:07;;;;;;;21.92;19.63;;;;;;;;;;5015799;28;20532;-78
2023/12/20 07:52:34;;;;;;;22.25;20.15;;;;;;;;;;5015608;28;20214;-78
2023/12/20 07:55:01;;;;;;;19.00;17.70;;;;;;;;;;5015278;28;20662;-78
2023/12/20 07:57:30;;;;;;;20.40;19.10;;;;;;;;;;5015320;28;20243;-78
2023/12/20 07:59:57;;;;;;;46.05;19.70;;;;;;;;;;5018407;28;20452;-78
2023/12/20 08:02:24;;;;;;;32.40;17.70;;;;;;;;;;5016705;28;20240;-78
2023/12/20 08:04:51;;;;;;;18.43;16.83;;;;;;;;;;5014967;28;20225;-78
2023/12/20 08:07:19;;;;;;;19.33;17.90;;;;;;;;;;5013994;28;20497;-78
2023/12/20 08:09:46;;;;;;;20.20;18.77;;;;;;;;;;5013739;28;20456;-78
2023/12/20 08:12:13;;;;;;;18.02;16.92;;;;;;;;;;5012469;28;20201;-78
2023/12/20 08:14:40;;;;;;;18.58;16.90;;;;;;;;;;5013095;28;20260;-78
2023/12/20 08:17:07;;;;;;;16.90;15.98;;;;;;;;;;5012761;28;20597;-77
2023/12/20 08:19:34;;;;;;;18.15;17.05;;;;;;;;;;5012370;28;20626;-78
2023/12/20 08:22:01;;;;;;;18.77;17.67;;;;;;;;;;5011973;28;20945;-78
2023/12/20 08:24:31;;;;;;;18.45;17.23;;;;;;;;;;5011982;28;21003;-78
2023/12/20 08:26:58;;;;;;;20.27;18.70;;;;;;;;;;5012613;28;20245;-77
2023/12/20 08:29:25;;;;;;;18.42;16.60;;;;;;;;;;5011412;28;20484;-77
2023/12/20 08:31:54;;;;;;;19.45;17.75;;;;;;;;;;5013447;28;20670;-78
2023/12/20 08:34:21;;;;;;;20.83;19.42;;;;;;;;;;5012230;28;20208;-77
2023/12/20 08:36:48;;;;;;;21.33;19.73;;;;;;;;;;5012021;28;20229;-77
2023/12/20 08:39:15;;;;;;;24.93;21.40;;;;;;;;;;5012770;28;20209;-77
2023/12/20 08:41:43;;;;;;;17.50;16.48;;;;;;;;;;5011467;28;20840;-77
2023/12/20 08:44:10;;;;;;;21.50;20.10;;;;;;;;;;5011236;28;20233;-78
2023/12/20 08:46:37;;;;;;;20.60;19.10;;;;;;;;;;5014487;28;20473;-83
2023/12/20 08:49:04;;;;;;;19.55;17.65;;;;;;;;;;5017067;28;20530;-81
2023/12/20 08:51:32;;;;;;;20.13;18.70;;;;;;;;;;5017278;28;20209;-82
2023/12/20 08:53:59;;;;;;;22.27;20.15;;;;;;;;;;5016608;28;20450;-81
2023/12/20 08:56:26;;;;;;;22.83;20.83;;;;;;;;;;5001525;28;20230;-81
2023/12/20 08:58:54;;;;;;;21.13;19.70;;;;;;;;;;4998245;28;20245;-81
2023/12/20 09:01:21;;;;;;;22.47;20.43;;;;;;;;;;5004307;28;20259;-81
2023/12/20 09:03:48;;;;;;;20.17;18.50;;;;;;;;;;5017059;28;20988;-81
2023/12/20 09:06:15;;;;;;;20.07;18.40;;;;;;;;;;5018269;28;20468;-81
2023/12/20 09:08:42;;;;;;;22.40;20.30;;;;;;;;;;5019165;28;20444;-80
2023/12/20 09:11:09;;;;;;;23.77;21.20;;;;;;;;;;5010769;28;20481;-78
2023/12/20 09:13:36;;;;;;;21.23;19.50;;;;;;;;;;5014257;28;20215;-78
2023/12/20 09:16:06;;;;;;;18.75;17.40;;;;;;;;;;5013060;28;20550;-78
2023/12/20 09:18:33;;;;;;;20.52;19.15;;;;;;;;;;5013656;28;20213;-78
2023/12/20 09:21:00;;;;;;;21.13;19.50;;;;;;;;;;5012109;28;20239;-78
2023/12/20 09:23:27;;;;;;;24.80;22.05;;;;;;;;;;5012564;28;20448;-78
2023/12/20 09:25:54;;;;;;;21.58;19.70;;;;;;;;;;5012678;28;20259;-78
2023/12/20 09:28:21;;;;;;;21.30;19.73;;;;;;;;;;4994431;28;20221;-78
2023/12/20 09:30:48;;;;;;;21.80;20.20;;;;;;;;;;4992616;28;20432;-78
2023/12/20 09:33:16;;;;;;;22.43;20.93;;;;;;;;;;4993186;28;20222;-79
2023/12/20 09:35:43;;;;;;;24.17;21.88;;;;;;;;;;4993452;28;20783;-78
2023/12/20 09:38:11;;;;;;;21.38;19.70;;;;;;;;;;4993076;28;20218;-78
2023/12/20 09:40:38;;;;;;;20.83;19.63;;;;;;;;;;4992506;28;20213;-79
2023/12/20 09:43:05;;;;;;;18.83;17.90;;;;;;;;;;4992908;28;20484;-78
2023/12/20 09:45:32;;;;;;;25.98;23.48;;;;;;;;;;4992451;28;20485;-79
2023/12/20 09:48:00;;;;;;;24.38;22.35;;;;;;;;;;4992923;28;20230;-78
2023/12/20 09:50:30;;;;;;;24.45;21.92;;;;;;;;;;4992747;28;20304;-78
2023/12/20 09:52:59;;;;;;;24.87;22.33;;;;;;;;;;4992427;28;20199;-78
2023/12/20 09:55:26;;;;;;;22.20;20.30;;;;;;;;;;4992778;28;20441;-78
2023/12/20 09:57:53;;;;;;;21.23;19.60;;;;;;;;;;4995177;28;20226;-78
2023/12/20 10:00:21;;;;;;;22.10;20.37;;;;;;;;;;4995897;28;20210;-79
2023/12/20 10:02:51;;;;;;;18.83;17.83;;;;;;;;;;4995995;28;20457;-78
2023/12/20 10:05:19;;;;;;;21.30;19.83;;;;;;;;;;4995834;28;20206;-77
2023/12/20 10:07:48;;;;;;;22.98;20.65;;;;;;;;;;4995643;28;20493;-78
2023/12/20 10:10:15;;;;;;;22.40;20.47;;;;;;;;;;4996009;28;20537;-78
2023/12/20 10:13:02;;;;;;;23.77;21.35;;;;;;;;;;4995189;28;20448;-78
2023/12/20 10:15:29;;;;;;;22.33;20.50;;;;;;;;;;4995958;28;20191;-78
2023/12/20 10:17:56;;;;;;;22.50;20.10;;;;;;;;;;4995535;28;20641;-78
2023/12/20 10:20:23;;;;;;;21.27;19.33;;;;;;;;;;4995793;28;20191;-77
2023/12/20 10:22:53;;;;;;;19.75;18.25;;;;;;;;;;4995791;28;20457;-77
2023/12/20 10:25:20;;;;;;;18.60;17.35;;;;;;;;;;4995202;28;20219;-77
2023/12/20 10:27:47;;;;;;;22.23;20.13;;;;;;;;;;4994796;28;20214;-78
2023/12/20 10:30:15;;;;;;;20.13;18.93;;;;;;;;;;5002605;28;20449;-78
2023/12/20 10:32:42;;;;;;;21.67;19.80;;;;;;;;;;5016965;28;20451;-79
2023/12/20 10:35:10;;;;;;;20.93;18.77;;;;;;;;;;5018955;28;20491;-77
2023/12/20 10:37:37;;;;;;;19.57;18.13;;;;;;;;;;5001247;28;20476;-78
2023/12/20 10:40:06;;;;;;;22.73;20.75;;;;;;;;;;4997439;28;20434;-79
2023/12/20 10:42:34;;;;;;;22.13;20.17;;;;;;;;;;4999373;28;20587;-79
2023/12/20 10:45:01;;;;;;;21.53;19.73;;;;;;;;;;4999137;28;20489;-79
2023/12/20 10:47:29;;;;;;;24.53;22.70;;;;;;;;;;4998038;28;21075;-78
2023/12/20 10:49:56;;;;;;;25.13;23.20;;;;;;;;;;4998659;28;20461;-78
2023/12/20 10:52:24;;;;;;;24.37;22.47;;;;;;;;;;5008553;28;20507;-78
2023/12/20 10:54:51;;;;;;;24.75;22.95;;;;;;;;;;5018533;28;20469;-80
2023/12/20 10:57:20;;;;;;;25.03;22.83;;;;;;;;;;5010373;28;20238;-79
2023/12/20 10:59:50;;;;;;;24.95;23.55;;;;;;;;;;4995780;28;20463;-78
2023/12/20 11:02:17;;;;;;;24.20;22.50;;;;;;;;;;4995389;28;20211;-78
2023/12/20 11:04:48;;;;;;;29.33;23.42;;;;;;;;;;4995830;28;20540;-78
2023/12/20 11:07:19;;;;;;;21.17;20.17;;;;;;;;;;4995317;28;20276;-77
2023/12/20 11:09:49;;;;;;;22.63;21.30;;;;;;;;;;4994683;28;21060;-78
2023/12/20 11:12:19;;;;;;;25.60;23.77;;;;;;;;;;4994141;28;20464;-78
2023/12/20 11:14:48;;;;;;;23.47;22.00;;;;;;;;;;4994624;28;20206;-77
2023/12/20 11:17:16;;;;;;;23.90;22.20;;;;;;;;;;4994610;28;20473;-78
2023/12/20 11:20:01;;;;;;;22.70;21.40;;;;;;;;;;4994743;28;20465;-78
2023/12/20 11:22:29;;;;;;;24.63;21.97;;;;;;;;;;4993788;28;20503;-78
2023/12/20 11:24:59;;;;;;;23.33;21.63;;;;;;;;;;4994627;28;20485;-78
2023/12/20 11:27:26;;;;;;;23.60;22.02;;;;;;;;;;4994932;28;20469;-79
2023/12/20 11:29:55;;;;;;;22.80;21.20;;;;;;;;;;4995396;28;20203;-78
2023/12/20 11:32:32;;;;;;;25.58;23.23;;;;;;;;;;4994343;28;20449;-78
2023/12/20 11:35:00;;;;;;;22.00;20.90;;;;;;;;;;4994783;28;20202;-78
2023/12/20 11:37:31;;;;;;;23.25;21.83;;;;;;;;;;4994192;28;20535;-78
2023/12/20 11:40:02;;;;;;;23.83;21.65;;;;;;;;;;4994276;28;20218;-78
2023/12/20 11:42:29;;;;;;;21.73;20.43;;;;;;;;;;4993201;28;20217;-78
2023/12/20 11:44:57;;;;;;;20.77;19.88;;;;;;;;;;4993551;28;20494;-78
2023/12/20 11:47:25;;;;;;;24.33;22.20;;;;;;;;;;4994032;28;20604;-78
2023/12/20 11:49:52;;;;;;;21.53;20.10;;;;;;;;;;4993715;28;20468;-77
2023/12/20 11:52:19;;;;;;;19.33;18.20;;;;;;;;;;4993243;28;20458;-77
2023/12/20 11:54:47;;;;;;;24.33;22.63;;;;;;;;;;4993611;28;20487;-79
2023/12/20 11:57:14;;;;;;;20.45;19.23;;;;;;;;;;4993586;28;20472;-78
2023/12/20 11:59:41;;;;;;;21.13;19.43;;;;;;;;;;4993355;28;20632;-78
2023/12/20 12:02:10;;;;;;;19.63;18.33;;;;;;;;;;4992987;28;20492;-77
2023/12/20 12:04:36;;;;;;;19.20;17.87;;;;;;;;;;4993428;28;20853;-78
2023/12/20 12:07:04;;;;;;;19.40;18.30;;;;;;;;;;4993905;28;20473;-78
2023/12/20 12:09:31;;;;;;;20.30;18.70;;;;;;;;;;4993140;28;20809;-77
2023/12/20 12:11:58;;;;;;;18.83;17.63;;;;;;;;;;4992599;28;20508;-78
2023/12/20 12:14:25;;;;;;;19.90;18.30;;;;;;;;;;4993116;28;20474;-77
2023/12/20 12:16:53;;;;;;;21.00;19.30;;;;;;;;;;4993334;28;20477;-78
2023/12/20 12:19:24;;;;;;;18.87;17.87;;;;;;;;;;4992488;28;20496;-77
2023/12/20 12:21:52;;;;;;;19.80;18.30;;;;;;;;;;5001144;28;20499;-77
2023/12/20 12:24:22;;;;;;;18.40;17.40;;;;;;;;;;5011301;28;20464;-79
2023/12/20 12:26:52;;;;;;;20.03;18.10;;;;;;;;;;5000234;28;20512;-78
2023/12/20 12:29:19;;;;;;;18.80;17.70;;;;;;;;;;5007306;28;20917;-78
2023/12/20 12:31:45;;;;;;;17.13;16.23;;;;;;;;;;4994265;28;20440;-78
2023/12/20 12:34:13;;;;;;;17.73;16.87;;;;;;;;;;4994445;28;20218;-79
2023/12/20 12:36:41;;;;;;;17.13;16.33;;;;;;;;;;4993880;28;20477;-78
2023/12/20 12:39:08;;;;;;;18.83;16.95;;;;;;;;;;4992381;28;20431;-77
2023/12/20 12:41:35;;;;;;;20.50;18.57;;;;;;;;;;4992991;28;20210;-77
2023/12/20 12:44:02;;;;;;;17.67;16.53;;;;;;;;;;5011480;28;20487;-77
2023/12/20 12:46:29;;;;;;;17.87;16.60;;;;;;;;;;5011194;28;20470;-78
2023/12/20 12:48:56;;;;;;;20.20;18.57;;;;;;;;;;5011998;28;20453;-78
2023/12/20 12:51:23;;;;;;;17.87;16.67;;;;;;;;;;4997071;28;20457;-78
2023/12/20 12:53:51;;;;;;;18.43;17.33;;;;;;;;;;4993571;28;20484;-77
2023/12/20 12:56:18;;;;;;;17.92;16.65;;;;;;;;;;4996911;28;20477;-78
2023/12/20 12:58:45;;;;;;;18.80;17.37;;;;;;;;;;4993756;28;20206;-77
2023/12/20 13:01:12;;;;;;;19.90;18.30;;;;;;;;;;4991960;28;20448;-77
2023/12/20 13:03:39;;;;;;;18.60;17.00;;;;;;;;;;4992340;28;20512;-78
2023/12/20 13:06:08;;;;;;;18.60;17.50;;;;;;;;;;4992371;28;21160;-78
2023/12/20 13:08:35;;;;;;;18.43;17.33;;;;;;;;;;4992079;28;20876;-78
2023/12/20 13:11:04;;;;;;;19.63;18.15;;;;;;;;;;4991480;28;20516;-78
2023/12/20 13:13:31;;;;;;;19.20;17.77;;;;;;;;;;4991979;28;20206;-78
2023/12/20 13:15:58;;;;;;;18.93;17.83;;;;;;;;;;4992006;28;20796;-78
2023/12/20 13:18:25;;;;;;;19.17;17.30;;;;;;;;;;4992632;28;20465;-80
2023/12/20 13:20:52;;;;;;;18.63;17.50;;;;;;;;;;4997713;28;20471;-80
2023/12/20 13:23:19;;;;;;;18.93;17.53;;;;;;;;;;4998345;28;20499;-80
2023/12/20 13:25:46;;;;;;;19.53;18.43;;;;;;;;;;4997797;28;20555;-81
2023/12/20 13:28:15;;;;;;;51.63;48.73;;;;;;;;;;5015530;28;20477;-81
2023/12/20 13:30:42;;;;;;;52.33;48.73;;;;;;;;;;5019977;28;20967;-79
2023/12/20 13:33:09;;;;;;;54.27;50.60;;;;;;;;;;5022308;28;20460;-79
2023/12/20 13:35:36;;;;;;;52.87;49.87;;;;;;;;;;5022995;28;20527;-79
2023/12/20 13:38:04;;;;;;;52.05;49.15;;;;;;;;;;5016899;28;20493;-83
2023/12/20 13:40:31;;;;;;;54.83;51.73;;;;;;;;;;5017236;28;20198;-80
2023/12/20 13:42:58;;;;;;;54.27;51.27;;;;;;;;;;5019659;28;20478;-79
2023/12/20 13:45:27;;;;;;;54.23;51.00;;;;;;;;;;5018357;28;20519;-79
2023/12/20 13:47:54;;;;;;;56.63;53.20;;;;;;;;;;5019931;28;20467;-79
2023/12/20 13:50:21;;;;;;;58.90;55.70;;;;;;;;;;5018590;28;20444;-79
2023/12/20 13:52:48;;;;;;;61.53;57.92;;;;;;;;;;5013555;28;20532;-79
2023/12/20 13:55:16;;;;;;;59.17;55.63;;;;;;;;;;5019008;28;20205;-79
2023/12/20 13:57:43;;;;;;;67.60;63.80;;;;;;;;;;5018339;28;20468;-79
2023/12/20 14:00:14;;;;;;;67.63;63.75;;;;;;;;;;5001929;28;20214;-81
2023/12/20 14:02:42;;;;;;;69.70;65.43;;;;;;;;;;5003619;28;20674;-80
2023/12/20 14:05:09;;;;;;;71.70;68.00;;;;;;;;;;5008750;28;20487;-82
2023/12/20 14:07:36;;;;;;;73.50;69.57;;;;;;;;;;5015398;28;20293;-83
2023/12/20 14:10:04;;;;;;;70.57;67.07;;;;;;;;;;5011176;28;20457;-78
2023/12/20 14:12:32;;;;;;;74.43;70.22;;;;;;;;;;5009429;28;20206;-81
2023/12/20 14:14:59;;;;;;;74.30;70.68;;;;;;;;;;5010307;28;20712;-78
2023/12/20 14:17:26;;;;;;;74.32;70.63;;;;;;;;;;4995461;28;20706;-77